createdAt,value
2022-09-11T00:00:02.933Z,32.50
2022-09-11T00:01:02.922Z,31.30
2022-09-11T00:02:02.992Z,32.10
2022-09-11T00:03:02.941Z,32.70
2022-09-11T00:04:02.888Z,30.40
2022-09-11T00:05:02.898Z,30.10
2022-09-11T00:06:02.867Z,29.60
2022-09-11T00:07:02.852Z,27.20
2022-09-11T00:08:02.848Z,30.80
2022-09-11T00:09:02.833Z,27.70
2022-09-11T00:10:02.835Z,28.10
2022-09-11T00:11:02.806Z,27.60
2022-09-11T00:12:02.796Z,32.10
2022-09-11T00:13:02.785Z,31.40
2022-09-11T00:14:02.774Z,32.80
2022-09-11T00:15:02.764Z,32.70
2022-09-11T00:16:02.801Z,32.80
2022-09-11T00:17:02.739Z,32.10
2022-09-11T00:18:02.740Z,39.20
2022-09-11T00:19:02.719Z,33.90
2022-09-11T00:20:02.708Z,31.80
2022-09-11T00:21:02.719Z,33.90
2022-09-11T00:22:02.685Z,33.30
2022-09-11T00:23:02.674Z,32.50
2022-09-11T00:24:02.673Z,34.10
2022-09-11T00:25:02.658Z,37.40
2022-09-11T00:26:02.643Z,37.40
2022-09-11T00:27:02.633Z,33.20
2022-09-11T00:28:02.622Z,35.10
2022-09-11T00:29:02.657Z,33.90
2022-09-11T00:30:02.635Z,31.30
2022-09-11T00:31:02.737Z,31.80
2022-09-11T00:32:02.699Z,35.80
2022-09-11T00:33:02.732Z,30.50
2022-09-11T00:34:02.708Z,33.20
2022-09-11T00:35:02.661Z,34.20
2022-09-11T00:36:02.529Z,37.80
2022-09-11T00:37:02.538Z,35.70
2022-09-11T00:38:02.504Z,35.00
2022-09-11T00:39:02.491Z,40.00
2022-09-11T00:40:02.551Z,45.80
2022-09-11T00:41:02.477Z,40.60
2022-09-11T00:42:02.463Z,42.10
2022-09-11T00:43:02.451Z,36.90
2022-09-11T00:44:02.441Z,33.40
2022-09-11T00:45:02.427Z,33.90
2022-09-11T00:46:02.441Z,37.20
2022-09-11T00:47:02.403Z,30.30
2022-09-11T00:48:02.392Z,33.60
2022-09-11T00:49:02.391Z,43.40
2022-09-11T00:50:02.371Z,31.50
2022-09-11T00:51:02.360Z,30.20
2022-09-11T00:52:02.350Z,30.70
2022-09-11T00:53:02.358Z,37.20
2022-09-11T00:54:02.328Z,35.00
2022-09-11T00:55:02.314Z,38.10
2022-09-11T00:56:02.304Z,41.20
2022-09-11T00:57:02.290Z,38.90
2022-09-11T00:58:02.280Z,50.80
2022-09-11T00:59:02.267Z,43.70
2022-09-11T01:00:02.259Z,38.00
2022-09-11T01:01:02.402Z,36.80
2022-09-11T01:02:02.315Z,36.60
2022-09-11T01:03:02.222Z,36.70
2022-09-11T01:04:02.215Z,36.60
2022-09-11T01:05:02.199Z,34.50
2022-09-11T01:06:02.189Z,32.70
2022-09-11T01:07:02.177Z,35.00
2022-09-11T01:08:02.167Z,36.80
2022-09-11T01:09:02.179Z,39.60
2022-09-11T01:10:02.145Z,37.80
2022-09-11T01:11:02.134Z,34.80
2022-09-11T01:12:02.123Z,35.70
2022-09-11T01:13:02.108Z,40.00
2022-09-11T01:14:02.101Z,32.80
2022-09-11T01:15:02.087Z,35.20
2022-09-11T01:16:02.105Z,42.40
2022-09-11T01:17:02.067Z,41.10
2022-09-11T01:18:02.053Z,39.10
2022-09-11T01:19:02.054Z,36.40
2022-09-11T01:20:02.034Z,36.10
2022-09-11T01:21:02.019Z,38.20
2022-09-11T01:22:02.009Z,39.60
2022-09-11T01:23:01.997Z,34.10
2022-09-11T01:24:01.987Z,39.30
2022-09-11T01:25:01.997Z,32.80
2022-09-11T01:26:01.963Z,41.40
2022-09-11T01:27:01.953Z,46.60
2022-09-11T01:28:01.940Z,38.20
2022-09-11T01:29:01.928Z,39.10
2022-09-11T01:30:01.920Z,46.00
2022-09-11T01:31:01.905Z,35.40
2022-09-11T01:32:01.898Z,37.60
2022-09-11T01:33:01.894Z,41.10
2022-09-11T01:34:01.875Z,35.20
2022-09-11T01:35:01.870Z,45.30
2022-09-11T01:36:01.851Z,46.90
2022-09-11T01:37:01.837Z,35.70
2022-09-11T01:38:01.826Z,39.80
2022-09-11T01:39:01.814Z,34.30
2022-09-11T01:40:01.832Z,33.10
2022-09-11T01:41:01.816Z,33.00
2022-09-11T01:42:01.791Z,35.80
2022-09-11T01:43:01.770Z,32.50
2022-09-11T01:44:01.759Z,36.00
2022-09-11T01:45:01.748Z,36.00
2022-09-11T01:46:01.819Z,39.20
2022-09-11T01:47:01.723Z,42.00
2022-09-11T01:48:01.716Z,33.90
2022-09-11T01:49:01.702Z,34.50
2022-09-11T01:50:01.690Z,38.10
2022-09-11T01:51:01.678Z,36.20
2022-09-11T01:52:01.669Z,41.70
2022-09-11T01:53:01.655Z,46.00
2022-09-11T01:54:01.648Z,37.40
2022-09-11T01:55:01.652Z,35.00
2022-09-11T01:56:01.626Z,35.80
2022-09-11T01:57:01.635Z,36.70
2022-09-11T01:58:01.603Z,39.50
2022-09-11T01:59:01.588Z,36.00
2022-09-11T02:00:01.579Z,36.80
2022-09-11T02:01:01.589Z,42.40
2022-09-11T02:02:01.626Z,36.70
2022-09-11T02:03:01.544Z,36.00
2022-09-11T02:04:01.535Z,37.20
2022-09-11T02:05:01.520Z,40.40
2022-09-11T02:06:01.511Z,39.40
2022-09-11T02:07:01.497Z,40.10
2022-09-11T02:08:01.490Z,42.90
2022-09-11T02:09:01.478Z,38.50
2022-09-11T02:10:01.470Z,36.60
2022-09-11T02:11:01.452Z,34.50
2022-09-11T02:12:01.442Z,37.50
2022-09-11T02:13:01.455Z,41.40
2022-09-11T02:14:01.418Z,40.30
2022-09-11T02:15:01.406Z,37.80
2022-09-11T02:16:01.462Z,37.60
2022-09-11T02:17:01.385Z,37.70
2022-09-11T02:18:01.374Z,43.00
2022-09-11T02:19:01.363Z,43.00
2022-09-11T02:20:01.351Z,39.60
2022-09-11T02:21:01.339Z,36.70
2022-09-11T02:22:01.328Z,35.20
2022-09-11T02:23:01.315Z,41.20
2022-09-11T02:24:01.309Z,37.10
2022-09-11T02:25:01.295Z,35.10
2022-09-11T02:26:01.284Z,36.30
2022-09-11T02:27:01.274Z,40.40
2022-09-11T02:28:01.264Z,36.70
2022-09-11T02:29:01.277Z,37.60
2022-09-11T02:30:01.240Z,38.40
2022-09-11T02:31:01.228Z,44.70
2022-09-11T02:32:01.219Z,39.90
2022-09-11T02:33:01.204Z,37.60
2022-09-11T02:34:01.193Z,38.10
2022-09-11T02:35:01.181Z,38.80
2022-09-11T02:36:01.173Z,38.90
2022-09-11T02:37:01.159Z,34.60
2022-09-11T02:38:01.148Z,37.80
2022-09-11T02:39:01.136Z,33.30
2022-09-11T02:40:01.160Z,33.30
2022-09-11T02:41:01.114Z,33.70
2022-09-11T02:42:01.103Z,34.90
2022-09-11T02:43:01.091Z,35.90
2022-09-11T02:44:01.083Z,35.30
2022-09-11T02:45:01.090Z,37.10
2022-09-11T02:46:01.117Z,38.90
2022-09-11T02:47:01.046Z,40.80
2022-09-11T02:48:01.036Z,40.80
2022-09-11T02:49:01.024Z,39.90
2022-09-11T02:50:01.017Z,38.30
2022-09-11T02:51:00.999Z,38.40
2022-09-11T02:52:00.990Z,37.70
2022-09-11T02:53:00.976Z,38.10
2022-09-11T02:54:00.970Z,33.10
2022-09-11T02:55:00.955Z,41.50
2022-09-11T02:56:00.945Z,40.20
2022-09-11T02:57:00.934Z,38.70
2022-09-11T02:58:00.922Z,41.10
2022-09-11T02:59:00.911Z,40.80
2022-09-11T03:00:00.899Z,37.70
2022-09-11T03:01:00.987Z,36.90
2022-09-11T03:02:00.943Z,34.20
2022-09-11T03:03:00.864Z,36.40
2022-09-11T03:04:00.855Z,35.70
2022-09-11T03:05:00.841Z,36.30
2022-09-11T03:06:00.831Z,37.30
2022-09-11T03:07:00.819Z,36.40
2022-09-11T03:08:00.814Z,38.40
2022-09-11T03:09:00.795Z,32.50
2022-09-11T03:10:00.791Z,35.40
2022-09-11T03:11:00.773Z,39.60
2022-09-11T03:12:00.765Z,44.20
2022-09-11T03:13:00.759Z,35.80
2022-09-11T03:14:00.741Z,38.70
2022-09-11T03:15:00.729Z,39.90
2022-09-11T03:16:00.746Z,36.20
2022-09-11T03:17:00.726Z,45.20
2022-09-11T03:18:00.697Z,36.90
2022-09-11T03:19:00.681Z,37.80
2022-09-11T03:20:00.673Z,35.40
2022-09-11T03:21:00.659Z,34.70
2022-09-11T03:22:00.649Z,37.20
2022-09-11T03:23:00.636Z,34.20
2022-09-11T03:24:00.629Z,32.70
2022-09-11T03:25:00.623Z,37.10
2022-09-11T03:26:00.605Z,35.30
2022-09-11T03:27:00.592Z,35.00
2022-09-11T03:28:00.580Z,42.60
2022-09-11T03:29:00.569Z,41.30
2022-09-11T03:30:00.559Z,45.40
2022-09-11T03:31:00.546Z,41.70
2022-09-11T03:32:00.644Z,40.80
2022-09-11T03:33:00.547Z,39.90
2022-09-11T03:34:00.513Z,39.10
2022-09-11T03:35:00.501Z,36.90
2022-09-11T03:36:00.498Z,46.00
2022-09-11T03:37:00.481Z,44.10
2022-09-11T03:38:00.480Z,41.50
2022-09-11T03:39:00.460Z,47.40
2022-09-11T03:40:00.506Z,68.10
2022-09-11T03:41:00.435Z,75.90
2022-09-11T03:42:00.421Z,60.50
2022-09-11T03:43:00.413Z,75.40
2022-09-11T03:44:00.401Z,69.50
2022-09-11T03:45:00.390Z,65.60
2022-09-11T03:46:00.421Z,66.10
2022-09-11T03:47:00.372Z,65.20
2022-09-11T03:48:00.354Z,74.40
2022-09-11T03:49:00.366Z,70.40
2022-09-11T03:50:00.333Z,55.70
2022-09-11T03:51:00.324Z,56.40
2022-09-11T03:52:00.307Z,61.60
2022-09-11T03:53:00.301Z,64.00
2022-09-11T03:54:00.285Z,59.40
2022-09-11T03:55:00.284Z,60.90
2022-09-11T03:56:00.267Z,56.30
2022-09-11T03:57:00.253Z,71.70
2022-09-11T03:58:00.241Z,72.60
2022-09-11T03:59:00.259Z,77.40
2022-09-11T04:00:00.220Z,53.70
2022-09-11T04:01:00.287Z,55.20
2022-09-11T04:02:00.277Z,58.20
2022-09-11T04:03:00.186Z,53.40
2022-09-11T04:04:00.174Z,52.50
2022-09-11T04:05:00.198Z,68.80
2022-09-11T04:06:00.151Z,72.90
2022-09-11T04:07:00.141Z,62.70
2022-09-11T04:08:00.131Z,73.40
2022-09-11T04:09:00.130Z,68.10
2022-09-11T04:10:00.111Z,73.20
2022-09-11T04:11:00.100Z,74.50
2022-09-11T04:12:00.091Z,67.80
2022-09-11T04:13:00.073Z,60.90
2022-09-11T04:14:00.064Z,66.60
2022-09-11T04:15:00.053Z,73.20
2022-09-11T04:16:00.138Z,72.40
2022-09-11T04:17:00.031Z,62.80
2022-09-11T04:18:04.782Z,62.00
2022-09-11T04:19:00.008Z,70.60
2022-09-11T04:19:59.993Z,64.30
2022-09-11T04:21:00.011Z,67.70
2022-09-11T04:21:59.973Z,50.30
2022-09-11T04:22:59.961Z,47.60
2022-09-11T04:23:59.950Z,71.20
2022-09-11T04:24:59.940Z,76.80
2022-09-11T04:25:59.926Z,71.90
2022-09-11T04:27:00.845Z,72.20
2022-09-11T04:27:59.903Z,70.00
2022-09-11T04:28:59.892Z,70.30
2022-09-11T04:29:59.881Z,62.50
2022-09-11T04:30:59.871Z,67.40
2022-09-11T04:31:59.870Z,58.40
2022-09-11T04:32:59.849Z,55.30
2022-09-11T04:33:59.835Z,59.60
2022-09-11T04:34:59.827Z,46.20
2022-09-11T04:35:59.814Z,58.70
2022-09-11T04:36:59.835Z,48.00
2022-09-11T04:37:59.791Z,44.30
2022-09-11T04:38:59.783Z,47.80
2022-09-11T04:39:59.805Z,48.80
2022-09-11T04:40:59.761Z,51.00
2022-09-11T04:41:59.745Z,46.80
2022-09-11T04:42:59.737Z,56.70
2022-09-11T04:44:04.454Z,64.80
2022-09-11T04:44:59.713Z,82.50
2022-09-11T04:45:59.735Z,79.20
2022-09-11T04:46:59.693Z,81.10
2022-09-11T04:47:59.677Z,77.30
2022-09-11T04:48:59.673Z,78.60
2022-09-11T04:49:59.654Z,54.80
2022-09-11T04:50:59.645Z,47.90
2022-09-11T04:51:59.636Z,57.90
2022-09-11T04:52:59.647Z,75.60
2022-09-11T04:53:59.608Z,70.70
2022-09-11T04:54:59.601Z,76.80
2022-09-11T04:55:59.587Z,77.50
2022-09-11T04:56:59.578Z,76.50
2022-09-11T04:57:59.566Z,77.60
2022-09-11T04:58:59.555Z,74.00
2022-09-11T04:59:59.541Z,68.10
2022-09-11T05:00:59.586Z,73.80
2022-09-11T05:01:59.572Z,58.90
2022-09-11T05:02:59.508Z,68.10
2022-09-11T05:03:59.497Z,62.70
2022-09-11T05:04:59.486Z,65.00
2022-09-11T05:05:59.487Z,61.90
2022-09-11T05:06:59.469Z,61.30
2022-09-11T05:07:59.451Z,53.20
2022-09-11T05:08:59.468Z,70.40
2022-09-11T05:09:59.429Z,60.80
2022-09-11T05:10:59.420Z,61.40
2022-09-11T05:11:59.411Z,67.80
2022-09-11T05:12:59.395Z,61.60
2022-09-11T05:13:59.385Z,65.00
2022-09-11T05:14:59.391Z,61.80
2022-09-11T05:15:59.363Z,59.70
2022-09-11T05:16:59.351Z,62.40
2022-09-11T05:17:59.340Z,67.80
2022-09-11T05:18:59.331Z,60.50
2022-09-11T05:19:59.315Z,67.80
2022-09-11T05:20:59.310Z,59.20
2022-09-11T05:21:59.294Z,54.70
2022-09-11T05:22:59.284Z,57.80
2022-09-11T05:23:59.271Z,58.30
2022-09-11T05:24:59.286Z,57.10
2022-09-11T05:25:59.260Z,46.40
2022-09-11T05:26:59.237Z,58.70
2022-09-11T05:27:59.225Z,48.40
2022-09-11T05:28:59.213Z,43.20
2022-09-11T05:29:59.202Z,55.20
2022-09-11T05:30:59.194Z,45.90
2022-09-11T05:31:59.216Z,40.30
2022-09-11T05:32:59.170Z,49.70
2022-09-11T05:33:59.158Z,54.30
2022-09-11T05:34:59.146Z,52.60
2022-09-11T05:35:59.136Z,59.90
2022-09-11T05:36:59.123Z,47.50
2022-09-11T05:37:59.114Z,49.50
2022-09-11T05:38:59.102Z,44.60
2022-09-11T05:39:59.156Z,45.90
2022-09-11T05:40:59.103Z,41.00
2022-09-11T05:41:59.068Z,47.20
2022-09-11T05:42:59.058Z,48.00
2022-09-11T05:43:59.044Z,56.80
2022-09-11T05:44:59.031Z,51.70
2022-09-11T05:45:59.035Z,55.40
2022-09-11T05:46:59.013Z,47.30
2022-09-11T05:47:59.006Z,49.50
2022-09-11T05:48:59.008Z,49.10
2022-09-11T05:49:58.974Z,50.80
2022-09-11T05:50:58.966Z,46.70
2022-09-11T05:51:58.957Z,53.00
2022-09-11T05:52:58.945Z,52.00
2022-09-11T05:53:58.932Z,56.50
2022-09-11T05:54:58.922Z,53.70
2022-09-11T05:55:58.911Z,50.50
2022-09-11T05:56:58.928Z,52.60
2022-09-11T05:57:58.890Z,43.40
2022-09-11T05:58:58.887Z,41.90
2022-09-11T05:59:58.876Z,47.40
2022-09-11T06:00:58.890Z,48.40
2022-09-11T06:01:58.872Z,47.60
2022-09-11T06:02:58.836Z,49.00
2022-09-11T06:03:58.821Z,45.30
2022-09-11T06:04:58.815Z,47.90
2022-09-11T06:05:58.802Z,51.70
2022-09-11T06:06:58.796Z,51.80
2022-09-11T06:07:58.780Z,42.30
2022-09-11T06:08:58.770Z,50.20
2022-09-11T06:10:02.969Z,52.20
2022-09-11T06:10:58.760Z,50.20
2022-09-11T06:11:58.736Z,51.00
2022-09-11T06:12:58.747Z,45.90
2022-09-11T06:13:58.709Z,50.50
2022-09-11T06:14:58.705Z,47.70
2022-09-11T06:15:58.685Z,49.70
2022-09-11T06:16:58.723Z,46.20
2022-09-11T06:17:58.664Z,52.00
2022-09-11T06:18:58.655Z,45.90
2022-09-11T06:19:58.644Z,54.90
2022-09-11T06:20:58.629Z,50.00
2022-09-11T06:21:58.634Z,48.90
2022-09-11T06:22:58.609Z,40.50
2022-09-11T06:23:58.596Z,38.50
2022-09-11T06:24:58.586Z,43.50
2022-09-11T06:25:58.572Z,47.80
2022-09-11T06:26:58.566Z,47.30
2022-09-11T06:27:58.551Z,43.70
2022-09-11T06:28:58.562Z,54.90
2022-09-11T06:29:58.526Z,43.40
2022-09-11T06:30:58.612Z,47.50
2022-09-11T06:31:58.504Z,46.70
2022-09-11T06:32:58.516Z,43.30
2022-09-11T06:33:58.498Z,41.00
2022-09-11T06:34:58.471Z,42.20
2022-09-11T06:35:58.461Z,44.50
2022-09-11T06:36:58.448Z,39.40
2022-09-11T06:37:58.436Z,40.20
2022-09-11T06:38:58.431Z,42.10
2022-09-11T06:39:58.458Z,40.10
2022-09-11T06:40:58.403Z,43.10
2022-09-11T06:41:58.389Z,42.00
2022-09-11T06:42:58.380Z,37.90
2022-09-11T06:43:58.388Z,36.80
2022-09-11T06:44:58.394Z,38.00
2022-09-11T06:45:58.413Z,37.60
2022-09-11T06:46:58.336Z,40.20
2022-09-11T06:47:58.323Z,33.20
2022-09-11T06:48:58.313Z,35.70
2022-09-11T06:49:58.301Z,31.80
2022-09-11T06:50:58.290Z,30.60
2022-09-11T06:51:58.278Z,32.80
2022-09-11T06:52:58.266Z,31.30
2022-09-11T06:53:58.314Z,32.90
2022-09-11T06:54:58.254Z,33.40
2022-09-11T06:55:58.250Z,29.70
2022-09-11T06:56:58.230Z,31.50
2022-09-11T06:57:58.209Z,33.30
2022-09-11T06:58:58.201Z,29.00
2022-09-11T06:59:58.189Z,28.80
2022-09-11T07:00:58.295Z,31.00
2022-09-11T07:01:58.289Z,28.70
2022-09-11T07:02:58.154Z,25.70
2022-09-11T07:03:58.143Z,27.40
2022-09-11T07:04:58.131Z,26.50
2022-09-11T07:05:58.120Z,27.20
2022-09-11T07:06:58.133Z,27.20
2022-09-11T07:07:58.098Z,27.00
2022-09-11T07:08:58.088Z,25.80
2022-09-11T07:09:58.076Z,28.20
2022-09-11T07:10:58.070Z,28.20
2022-09-11T07:11:58.056Z,25.00
2022-09-11T07:12:58.051Z,23.90
2022-09-11T07:13:58.033Z,24.50
2022-09-11T07:14:58.023Z,26.20
2022-09-11T07:15:58.008Z,24.00
2022-09-11T07:16:58.021Z,22.80
2022-09-11T07:17:57.994Z,23.40
2022-09-11T07:18:58.003Z,22.50
2022-09-11T07:19:57.963Z,22.20
2022-09-11T07:20:57.953Z,20.90
2022-09-11T07:21:57.940Z,20.80
2022-09-11T07:22:57.934Z,20.00
2022-09-11T07:23:57.922Z,21.20
2022-09-11T07:24:57.906Z,19.30
2022-09-11T07:25:57.894Z,20.30
2022-09-11T07:26:57.887Z,19.60
2022-09-11T07:27:57.934Z,19.00
2022-09-11T07:28:57.878Z,18.90
2022-09-11T07:29:57.877Z,19.10
2022-09-11T07:30:57.882Z,18.50
2022-09-11T07:31:57.844Z,19.20
2022-09-11T07:32:57.876Z,17.60
2022-09-11T07:33:57.845Z,18.50
2022-09-11T07:34:57.874Z,17.70
2022-09-11T07:35:57.879Z,17.80
2022-09-11T07:36:57.899Z,17.90
2022-09-11T07:37:57.915Z,16.50
2022-09-11T07:38:57.832Z,16.80
2022-09-11T07:39:57.846Z,16.90
2022-09-11T07:40:57.764Z,16.90
2022-09-11T07:41:57.746Z,17.10
2022-09-11T07:42:57.713Z,16.40
2022-09-11T07:43:57.703Z,16.50
2022-09-11T07:44:57.694Z,15.90
2022-09-11T07:45:57.716Z,15.40
2022-09-11T07:46:57.662Z,15.70
2022-09-11T07:47:57.648Z,15.50
2022-09-11T07:48:57.659Z,15.30
2022-09-11T07:49:57.626Z,14.80
2022-09-11T07:50:57.615Z,14.90
2022-09-11T07:51:57.634Z,14.00
2022-09-11T07:52:57.623Z,14.60
2022-09-11T07:53:57.584Z,13.20
2022-09-11T07:54:57.574Z,13.40
2022-09-11T07:55:57.563Z,13.60
2022-09-11T07:56:57.552Z,13.50
2022-09-11T07:57:57.540Z,14.10
2022-09-11T07:58:57.528Z,13.40
2022-09-11T07:59:57.516Z,13.80
2022-09-11T08:00:57.544Z,12.90
2022-09-11T08:01:57.589Z,12.10
2022-09-11T08:02:57.494Z,13.40
2022-09-11T08:03:57.481Z,12.60
2022-09-11T08:04:57.486Z,11.10
2022-09-11T08:05:57.451Z,10.50
2022-09-11T08:06:57.438Z,10.60
2022-09-11T08:07:57.430Z,10.70
2022-09-11T08:08:57.416Z,10.70
2022-09-11T08:10:23.282Z,11.30
2022-09-11T08:10:58.571Z,11.90
2022-09-11T08:11:57.387Z,10.90
2022-09-11T08:12:59.816Z,11.30
2022-09-11T08:13:57.373Z,10.50
2022-09-11T08:14:58.140Z,10.70
2022-09-11T08:15:57.339Z,10.80
2022-09-11T08:16:57.328Z,9.50
2022-09-11T08:17:57.323Z,10.20
2022-09-11T08:18:57.306Z,9.70
2022-09-11T08:19:57.296Z,9.00
2022-09-11T08:20:57.308Z,9.50
2022-09-11T08:21:57.273Z,8.80
2022-09-11T08:22:58.070Z,8.60
2022-09-11T08:23:57.281Z,8.20
2022-09-11T08:24:57.257Z,8.40
2022-09-11T08:25:57.251Z,8.20
2022-09-11T08:26:57.233Z,7.90
2022-09-11T08:27:57.222Z,7.50
2022-09-11T08:28:57.202Z,7.60
2022-09-11T08:29:57.189Z,6.90
2022-09-11T08:30:57.222Z,7.30
2022-09-11T08:32:01.610Z,7.50
2022-09-11T08:32:57.154Z,7.50
2022-09-11T08:33:57.144Z,7.20
2022-09-11T08:34:57.130Z,6.90
2022-09-11T08:35:57.122Z,6.90
2022-09-11T08:36:57.132Z,7.00
2022-09-11T08:37:57.102Z,7.10
2022-09-11T08:38:57.086Z,7.30
2022-09-11T08:39:57.161Z,7.20
2022-09-11T08:40:57.067Z,6.90
2022-09-11T08:41:57.054Z,7.10
2022-09-11T08:42:57.046Z,7.10
2022-09-11T08:43:57.034Z,7.30
2022-09-11T08:44:57.019Z,7.30
2022-09-11T08:45:57.073Z,7.10
2022-09-11T08:46:57.012Z,6.70
2022-09-11T08:47:56.987Z,7.30
2022-09-11T08:48:56.977Z,6.60
2022-09-11T08:49:56.969Z,6.80
2022-09-11T08:50:56.958Z,6.10
2022-09-11T08:51:56.943Z,7.10
2022-09-11T08:52:56.954Z,6.70
2022-09-11T08:53:56.938Z,6.70
2022-09-11T08:54:56.913Z,6.40
2022-09-11T08:55:56.908Z,6.40
2022-09-11T08:56:56.899Z,7.10
2022-09-11T08:57:56.891Z,7.30
2022-09-11T08:58:56.868Z,6.60
2022-09-11T08:59:56.854Z,6.90
2022-09-11T09:00:56.864Z,6.30
2022-09-11T09:01:56.936Z,6.10
2022-09-11T09:02:56.821Z,6.30
2022-09-11T09:03:56.814Z,6.00
2022-09-11T09:04:56.806Z,6.30
2022-09-11T09:05:56.791Z,6.00
2022-09-11T09:06:56.776Z,6.00
2022-09-11T09:07:56.772Z,6.20
2022-09-11T09:08:56.795Z,6.30
2022-09-11T09:09:56.751Z,5.80
2022-09-11T09:10:56.732Z,5.80
2022-09-11T09:11:56.727Z,6.00
2022-09-11T09:12:56.716Z,5.40
2022-09-11T09:13:56.700Z,4.90
2022-09-11T09:14:56.690Z,5.20
2022-09-11T09:15:56.770Z,5.20
2022-09-11T09:16:56.673Z,4.70
2022-09-11T09:17:56.659Z,5.70
2022-09-11T09:18:56.663Z,5.80
2022-09-11T09:19:56.669Z,6.30
2022-09-11T09:20:56.621Z,5.90
2022-09-11T09:21:56.611Z,6.10
2022-09-11T09:22:56.600Z,6.10
2022-09-11T09:23:56.592Z,5.70
2022-09-11T09:24:56.603Z,5.70
2022-09-11T09:25:56.568Z,5.80
2022-09-11T09:26:56.557Z,6.10
2022-09-11T09:27:56.549Z,6.40
2022-09-11T09:28:56.535Z,6.30
2022-09-11T09:29:56.529Z,6.20
2022-09-11T09:30:56.598Z,6.10
2022-09-11T09:31:56.520Z,5.90
2022-09-11T09:32:56.515Z,5.90
2022-09-11T09:33:56.483Z,6.20
2022-09-11T09:34:56.832Z,5.40
2022-09-11T09:35:56.459Z,6.10
2022-09-11T09:36:56.448Z,6.00
2022-09-11T09:37:56.437Z,5.10
2022-09-11T09:38:56.423Z,4.60
2022-09-11T09:39:56.461Z,4.20
2022-09-11T09:40:56.427Z,4.30
2022-09-11T09:41:56.392Z,4.40
2022-09-11T09:42:56.384Z,4.70
2022-09-11T09:43:56.373Z,4.80
2022-09-11T09:44:56.432Z,5.20
2022-09-11T09:45:56.395Z,5.00
2022-09-11T09:46:56.344Z,4.80
2022-09-11T09:47:56.327Z,5.00
2022-09-11T09:48:56.313Z,4.10
2022-09-11T09:49:56.304Z,4.40
2022-09-11T09:50:56.297Z,4.40
2022-09-11T09:51:58.097Z,4.00
2022-09-11T09:52:56.267Z,4.30
2022-09-11T09:53:56.260Z,3.90
2022-09-11T09:54:56.249Z,4.10
2022-09-11T09:55:56.285Z,3.30
2022-09-11T09:56:56.266Z,3.40
2022-09-11T09:57:56.228Z,3.80
2022-09-11T09:58:56.211Z,3.40
2022-09-11T09:59:56.202Z,3.30
2022-09-11T10:00:56.189Z,3.50
2022-09-11T10:01:56.275Z,3.30
2022-09-11T10:02:56.163Z,3.10
2022-09-11T10:03:56.162Z,3.10
2022-09-11T10:04:56.955Z,2.90
2022-09-11T10:05:56.170Z,3.40
2022-09-11T10:06:56.135Z,2.90
2022-09-11T10:07:56.112Z,3.20
2022-09-11T10:08:59.053Z,3.20
2022-09-11T10:09:56.082Z,3.40
2022-09-11T10:10:56.082Z,3.00
2022-09-11T10:11:56.081Z,3.00
2022-09-11T10:13:13.046Z,2.90
2022-09-11T10:13:57.071Z,3.00
2022-09-11T10:14:56.043Z,3.30
2022-09-11T10:15:56.059Z,3.10
2022-09-11T10:16:56.026Z,3.30
2022-09-11T10:17:56.033Z,3.30
2022-09-11T10:18:55.988Z,3.20
2022-09-11T10:19:55.985Z,3.00
2022-09-11T10:20:55.984Z,2.90
2022-09-11T10:21:55.959Z,2.60
2022-09-11T10:22:55.949Z,2.40
2022-09-11T10:23:56.350Z,2.50
2022-09-11T10:24:55.924Z,2.40
2022-09-11T10:25:55.915Z,3.00
2022-09-11T10:26:55.904Z,2.70
2022-09-11T10:27:55.911Z,2.40
2022-09-11T10:28:55.908Z,2.50
2022-09-11T10:29:55.888Z,2.00
2022-09-11T10:30:55.903Z,2.40
2022-09-11T10:31:55.857Z,2.00
2022-09-11T10:32:59.006Z,1.90
2022-09-11T10:33:55.835Z,1.80
2022-09-11T10:34:55.818Z,1.90
2022-09-11T10:35:55.808Z,2.00
2022-09-11T10:36:55.801Z,1.90
2022-09-11T10:37:55.794Z,2.30
2022-09-11T10:38:55.775Z,2.10
2022-09-11T10:39:55.956Z,2.30
2022-09-11T10:40:55.808Z,2.20
2022-09-11T10:41:55.746Z,2.00
2022-09-11T10:42:55.734Z,2.20
2022-09-11T10:43:55.726Z,2.00
2022-09-11T10:44:55.731Z,1.90
2022-09-11T10:45:55.763Z,2.10
2022-09-11T10:46:55.695Z,1.90
2022-09-11T10:47:55.685Z,1.80
2022-09-11T10:48:55.674Z,1.80
2022-09-11T10:49:55.665Z,1.80
2022-09-11T10:50:55.735Z,1.60
2022-09-11T10:51:56.093Z,1.60
2022-09-11T10:52:55.629Z,1.60
2022-09-11T10:53:55.620Z,1.70
2022-09-11T10:54:55.610Z,1.60
2022-09-11T10:55:55.598Z,1.70
2022-09-11T10:56:55.736Z,1.60
2022-09-11T10:57:55.579Z,1.50
2022-09-11T10:58:55.565Z,1.70
2022-09-11T10:59:55.563Z,1.50
2022-09-11T11:00:55.573Z,1.40
2022-09-11T11:01:55.762Z,1.30
2022-09-11T11:02:55.826Z,1.40
2022-09-11T11:03:55.511Z,1.30
2022-09-11T11:04:55.504Z,1.20
2022-09-11T11:05:55.490Z,1.30
2022-09-11T11:06:55.499Z,1.50
2022-09-11T11:07:55.471Z,1.30
2022-09-11T11:08:55.460Z,1.50
2022-09-11T11:09:55.449Z,1.40
2022-09-11T11:10:55.439Z,1.90
2022-09-11T11:11:55.532Z,1.50
2022-09-11T11:12:55.675Z,1.60
2022-09-11T11:13:55.409Z,1.40
2022-09-11T11:14:55.470Z,1.50
2022-09-11T11:15:55.452Z,1.30
2022-09-11T11:16:55.403Z,1.30
2022-09-11T11:17:55.385Z,1.30
2022-09-11T11:18:55.354Z,1.20
2022-09-11T11:19:55.388Z,1.20
2022-09-11T11:20:55.331Z,1.20
2022-09-11T11:21:55.417Z,1.20
2022-09-11T11:22:55.311Z,1.30
2022-09-11T11:23:55.318Z,1.10
2022-09-11T11:24:55.668Z,1.20
2022-09-11T11:25:55.282Z,1.00
2022-09-11T11:26:55.277Z,1.20
2022-09-11T11:27:55.485Z,1.30
2022-09-11T11:28:55.471Z,1.70
2022-09-11T11:29:55.479Z,1.40
2022-09-11T11:30:55.512Z,1.40
2022-09-11T11:31:55.218Z,1.30
2022-09-11T11:32:55.230Z,1.30
2022-09-11T11:33:55.473Z,1.50
2022-09-11T11:34:55.250Z,1.30
2022-09-11T11:35:55.191Z,1.30
2022-09-11T11:36:55.160Z,1.20
2022-09-11T11:37:55.157Z,0.90
2022-09-11T11:38:55.510Z,1.10
2022-09-11T11:39:55.193Z,1.20
2022-09-11T11:40:55.122Z,1.20
2022-09-11T11:41:55.111Z,1.10
2022-09-11T11:42:56.345Z,1.20
2022-09-11T11:43:55.089Z,1.20
2022-09-11T11:44:55.107Z,1.20
2022-09-11T11:45:55.222Z,1.00
2022-09-11T11:46:55.055Z,1.20
2022-09-11T11:47:55.051Z,1.10
2022-09-11T11:48:55.060Z,1.00
2022-09-11T11:49:55.030Z,1.00
2022-09-11T11:50:55.015Z,0.90
2022-09-11T11:51:55.044Z,1.00
2022-09-11T11:52:54.993Z,1.00
2022-09-11T11:53:54.982Z,1.30
2022-09-11T11:54:54.987Z,0.90
2022-09-11T11:55:54.996Z,1.00
2022-09-11T11:56:54.948Z,1.20
2022-09-11T11:57:54.943Z,0.90
2022-09-11T11:58:54.924Z,1.10
2022-09-11T11:59:54.916Z,0.90
2022-09-11T12:00:55.496Z,0.90
2022-09-11T12:01:54.982Z,1.00
2022-09-11T12:02:54.884Z,0.90
2022-09-11T12:03:54.917Z,0.70
2022-09-11T12:04:54.884Z,0.90
2022-09-11T12:05:54.868Z,0.70
2022-09-11T12:06:54.858Z,0.90
2022-09-11T12:07:54.833Z,0.80
2022-09-11T12:08:54.829Z,1.00
2022-09-11T12:09:54.862Z,1.90
2022-09-11T12:10:54.800Z,1.40
2022-09-11T12:11:54.784Z,1.20
2022-09-11T12:12:54.775Z,2.50
2022-09-11T12:13:54.802Z,1.60
2022-09-11T12:14:54.810Z,1.10
2022-09-11T12:15:54.891Z,1.20
2022-09-11T12:16:54.756Z,1.20
2022-09-11T12:17:54.721Z,1.00
2022-09-11T12:18:54.873Z,1.00
2022-09-11T12:19:54.700Z,0.80
2022-09-11T12:20:54.713Z,1.20
2022-09-11T12:21:54.685Z,1.00
2022-09-11T12:22:54.669Z,0.90
2022-09-11T12:23:54.683Z,0.90
2022-09-11T12:24:54.650Z,1.20
2022-09-11T12:25:54.636Z,1.10
2022-09-11T12:26:54.632Z,0.90
2022-09-11T12:27:54.626Z,1.00
2022-09-11T12:28:54.611Z,0.80
2022-09-11T12:29:54.603Z,0.70
2022-09-11T12:30:54.649Z,1.50
2022-09-11T12:31:54.578Z,2.70
2022-09-11T12:32:54.584Z,2.50
2022-09-11T12:33:54.578Z,4.80
2022-09-11T12:34:54.543Z,3.20
2022-09-11T12:35:54.540Z,2.20
2022-09-11T12:36:54.556Z,2.00
2022-09-11T12:37:54.527Z,1.60
2022-09-11T12:38:54.524Z,1.80
2022-09-11T12:39:54.658Z,1.30
2022-09-11T12:40:54.618Z,1.10
2022-09-11T12:41:54.471Z,0.90
2022-09-11T12:42:54.466Z,0.90
2022-09-11T12:43:54.452Z,1.10
2022-09-11T12:44:54.447Z,1.90
2022-09-11T12:45:54.464Z,2.00
2022-09-11T12:46:54.422Z,2.20
2022-09-11T12:47:54.426Z,2.00
2022-09-11T12:49:17.889Z,3.50
2022-09-11T12:49:55.417Z,2.40
2022-09-11T12:50:54.379Z,1.70
2022-09-11T12:51:54.374Z,0.90
2022-09-11T12:52:54.386Z,0.90
2022-09-11T12:53:54.345Z,2.50
2022-09-11T12:54:54.345Z,1.40
2022-09-11T12:55:54.338Z,2.80
2022-09-11T12:56:54.325Z,2.40
2022-09-11T12:57:54.305Z,1.40
2022-09-11T12:58:54.502Z,1.00
2022-09-11T12:59:54.282Z,1.00
2022-09-11T13:00:54.274Z,0.90